TimeEST,TemperatureF,Dew PointF,Humidity,Sea Level PressureIn,VisibilityMPH,Wind Direction,Wind SpeedMPH,Gust SpeedMPH,PrecipitationIn,Events,Conditions,WindDirDegrees,DateUTC
12:11 AM,22.3,20.1,91,30.25,5.0,West,6.9,-,N/A,Snow,Light Snow,260,2012-11-27 05:11:00
12:31 AM,22.1,20.1,92,30.25,10.0,WSW,4.6,-,N/A,Snow,Light Snow,250,2012-11-27 05:31:00
12:51 AM,22.1,20.3,93,30.24,10.0,West,5.8,-,N/A,,Overcast,260,2012-11-27 05:51:00
1:12 AM,22.1,20.5,93,30.24,10.0,WSW,4.6,-,N/A,Snow,Light Snow,250,2012-11-27 06:12:00
1:32 AM,22.1,20.5,93,30.24,10.0,WSW,5.8,-,N/A,Snow,Light Snow,250,2012-11-27 06:32:00
1:52 AM,22.3,21.2,96,30.24,7.0,WSW,4.6,-,N/A,Snow,Light Snow,250,2012-11-27 06:52:00
2:12 AM,22.6,21.4,95,30.24,7.0,WSW,3.5,-,N/A,Snow,Light Snow,250,2012-11-27 07:12:00
2:32 AM,22.3,21.2,96,30.25,5.0,West,3.5,-,N/A,Snow,Light Snow,260,2012-11-27 07:32:00
2:52 AM,22.6,21.4,95,30.26,10.0,West,3.5,-,N/A,Snow,Light Snow,260,2012-11-27 07:52:00
3:12 AM,23.5,22.5,96,30.26,7.0,Calm,Calm,-,N/A,Snow,Light Snow,0,2012-11-27 08:12:00
3:32 AM,23.5,22.5,96,30.25,10.0,Calm,Calm,-,N/A,Snow,Light Snow,0,2012-11-27 08:32:00
3:52 AM,23.5,22.5,96,30.25,7.0,WSW,3.5,-,N/A,Snow,Light Snow,240,2012-11-27 08:52:00
4:12 AM,23.5,22.5,96,30.25,10.0,Calm,Calm,-,N/A,Snow,Light Snow,0,2012-11-27 09:12:00
4:32 AM,23.5,21.9,94,30.24,10.0,Calm,Calm,-,N/A,Snow,Light Snow,0,2012-11-27 09:32:00
4:52 AM,23.5,21.2,91,30.24,10.0,WSW,4.6,-,N/A,,Overcast,250,2012-11-27 09:52:00
5:13 AM,23.5,21.4,91,30.24,10.0,WSW,3.5,-,N/A,,Overcast,240,2012-11-27 10:13:00
5:33 AM,23.5,21.9,94,30.24,10.0,Calm,Calm,-,N/A,,Overcast,0,2012-11-27 10:33:00
5:53 AM,23.9,22.1,93,30.24,10.0,WSW,3.5,-,N/A,,Overcast,240,2012-11-27 10:53:00
6:13 AM,23.9,21.9,92,30.25,10.0,WSW,4.6,-,N/A,,Overcast,240,2012-11-27 11:13:00
7:33 AM,24.3,21.7,90,30.25,10.0,WSW,5.8,-,N/A,,Overcast,240,2012-11-27 12:33:00
7:53 AM,23.5,20.8,89,30.26,10.0,SW,4.6,-,N/A,,Overcast,230,2012-11-27 12:53:00
8:13 AM,23.5,20.3,87,30.25,10.0,SW,4.6,-,N/A,,Overcast,230,2012-11-27 13:13:00
8:33 AM,23.5,19.9,86,30.26,10.0,SW,4.6,-,N/A,,Mostly Cloudy,230,2012-11-27 13:33:00
8:54 AM,23.7,19.0,82,30.26,10.0,WSW,4.6,-,N/A,,Scattered Clouds,240,2012-11-27 13:54:00
9:14 AM,25.7,19.9,79,30.26,10.0,West,5.8,-,N/A,,Mostly Cloudy,260,2012-11-27 14:14:00
9:34 AM,26.1,19.8,77,30.26,10.0,West,8.1,-,N/A,,Mostly Cloudy,260,2012-11-27 14:34:00
10:34 AM,27.0,19.2,73,30.27,10.0,WSW,12.7,17.3,N/A,,Mostly Cloudy,250,2012-11-27 15:34:00
10:54 AM,26.1,18.0,71,30.27,10.0,West,11.5,-,N/A,,Scattered Clouds,270,2012-11-27 15:54:00
11:14 AM,26.1,18.0,71,30.27,10.0,West,6.9,-,N/A,,Scattered Clouds,260,2012-11-27 16:14:00
11:35 AM,28.4,19.4,69,30.26,10.0,West,9.2,-,N/A,,Clear,260,2012-11-27 16:35:00
11:55 AM,28.4,19.2,69,30.25,10.0,WSW,6.9,-,N/A,,Clear,250,2012-11-27 16:55:00
12:15 PM,28.4,18.3,66,30.24,10.0,West,9.2,-,N/A,,Clear,260,2012-11-27 17:15:00
12:35 PM,28.4,17.8,64,30.23,10.0,WSW,6.9,-,N/A,,Clear,240,2012-11-27 17:35:00
12:55 PM,29.1,17.6,62,30.23,10.0,SW,9.2,-,N/A,,Clear,230,2012-11-27 17:55:00
1:15 PM,29.7,17.6,61,30.22,10.0,WSW,9.2,-,N/A,,Clear,250,2012-11-27 18:15:00
1:35 PM,31.1,18.1,59,30.21,10.0,SW,8.1,-,N/A,,Scattered Clouds,230,2012-11-27 18:35:00
1:55 PM,31.1,18.0,58,30.20,10.0,WSW,8.1,-,N/A,,Clear,240,2012-11-27 18:55:00
2:16 PM,31.1,16.7,55,30.19,10.0,SSW,8.1,-,N/A,,Clear,200,2012-11-27 19:16:00
2:31 PM,31.1,16.9,56,30.19,10.0,SSW,9.2,-,N/A,,Clear,200,2012-11-27 19:31:00
2:51 PM,31.1,17.4,57,30.18,10.0,SSW,9.2,16.1,N/A,,Scattered Clouds,210,2012-11-27 19:51:00
3:11 PM,31.1,17.8,58,30.18,10.0,SSW,6.9,-,N/A,,Overcast,210,2012-11-27 20:11:00
3:31 PM,31.1,17.6,57,30.17,10.0,SW,6.9,-,N/A,,Overcast,220,2012-11-27 20:31:00
3:51 PM,31.1,17.6,57,30.17,10.0,SSW,8.1,-,N/A,,Scattered Clouds,210,2012-11-27 20:51:00
4:11 PM,31.1,18.1,59,30.16,10.0,SW,8.1,-,N/A,,Scattered Clouds,220,2012-11-27 21:11:00
4:31 PM,31.1,18.3,59,30.17,10.0,SSW,8.1,-,N/A,,Mostly Cloudy,210,2012-11-27 21:31:00
4:51 PM,29.8,18.1,62,30.16,10.0,SSW,6.9,-,N/A,,Mostly Cloudy,210,2012-11-27 21:51:00
5:12 PM,28.8,17.4,63,30.16,10.0,SW,5.8,-,N/A,,Clear,220,2012-11-27 22:12:00
5:32 PM,28.4,17.2,63,30.16,10.0,SW,4.6,-,N/A,,Clear,220,2012-11-27 22:32:00
5:52 PM,28.4,17.6,64,30.16,10.0,SSW,4.6,-,N/A,,Clear,210,2012-11-27 22:52:00
6:12 PM,28.4,18.3,66,30.16,10.0,SSW,4.6,-,N/A,,Mostly Cloudy,210,2012-11-27 23:12:00
6:52 PM,28.4,18.3,66,30.15,10.0,SW,5.8,-,N/A,,Overcast,220,2012-11-27 23:52:00
7:12 PM,28.4,18.5,66,30.14,10.0,SW,8.1,-,N/A,,Mostly Cloudy,220,2012-11-28 00:12:00
7:32 PM,28.4,18.3,66,30.14,10.0,SW,6.9,-,N/A,,Overcast,230,2012-11-28 00:32:00
7:52 PM,28.4,18.3,66,30.13,10.0,SW,8.1,-,N/A,,Mostly Cloudy,220,2012-11-28 00:52:00
8:12 PM,28.4,18.3,66,30.12,10.0,SW,10.4,-,N/A,,Scattered Clouds,220,2012-11-28 01:12:00
8:32 PM,28.4,18.3,66,30.12,10.0,SSW,5.8,-,N/A,,Mostly Cloudy,210,2012-11-28 01:32:00
8:53 PM,28.4,19.0,68,30.11,10.0,SW,6.9,-,N/A,,Scattered Clouds,220,2012-11-28 01:53:00
9:13 PM,26.6,17.8,69,30.12,10.0,SW,9.2,-,N/A,,Clear,220,2012-11-28 02:13:00
9:33 PM,26.1,17.6,70,30.11,10.0,SW,5.8,-,N/A,,Scattered Clouds,220,2012-11-28 02:33:00
9:53 PM,26.1,17.8,71,30.11,10.0,SW,8.1,-,N/A,,Overcast,220,2012-11-28 02:53:00
10:13 PM,26.1,18.1,72,30.11,10.0,SW,8.1,-,N/A,,Scattered Clouds,220,2012-11-28 03:13:00
10:33 PM,26.1,18.5,73,30.10,10.0,SW,8.1,-,N/A,,Scattered Clouds,230,2012-11-28 03:33:00
10:53 PM,26.1,19.0,75,30.10,10.0,SW,9.2,-,N/A,,Scattered Clouds,220,2012-11-28 03:53:00
11:13 PM,26.1,19.4,76,30.09,10.0,SW,8.1,-,N/A,,Scattered Clouds,220,2012-11-28 04:13:00
11:54 PM,27.1,20.3,75,30.08,10.0,SW,8.1,-,N/A,,Overcast,220,2012-11-28 04:54:00